createdAt,value
2023-04-13T00:04:41.574Z,6.8
2023-04-13T00:19:41.599Z,6.5
2023-04-13T00:34:41.587Z,6.5
2023-04-13T00:49:41.575Z,6.2
2023-04-13T01:04:41.605Z,6.4
2023-04-13T01:19:41.588Z,6.5
2023-04-13T01:34:41.555Z,6.5
2023-04-13T01:49:41.583Z,6.4
2023-04-13T02:04:41.551Z,6.2
2023-04-13T02:19:41.578Z,6.2
2023-04-13T02:34:41.598Z,6.1
2023-04-13T02:49:41.540Z,5.8
2023-04-13T03:04:41.606Z,5.8
2023-04-13T03:19:41.578Z,5.8
2023-04-13T03:34:41.557Z,5.6
2023-04-13T03:49:41.594Z,5.5
2023-04-13T04:04:41.622Z,5.6
2023-04-13T04:19:41.504Z,5.6
2023-04-13T04:34:41.502Z,5.6
2023-04-13T04:49:41.589Z,5.4
2023-04-13T05:04:41.587Z,5.4
2023-04-13T05:19:41.572Z,5.4
2023-04-13T05:34:41.582Z,5.4
2023-04-13T05:49:41.578Z,5.7
2023-04-13T06:04:41.751Z,5.9
2023-04-13T06:19:41.582Z,6.3
2023-04-13T06:34:41.566Z,6.5
2023-04-13T06:49:41.584Z,6.7
2023-04-13T07:04:41.589Z,7
2023-04-13T07:19:41.562Z,7.2
2023-04-13T07:34:41.573Z,7.4
2023-04-13T07:49:41.586Z,7.7
2023-04-13T08:04:41.622Z,7.7
2023-04-13T08:19:41.582Z,7.9
2023-04-13T08:34:41.588Z,8.1
2023-04-13T08:49:41.565Z,8
2023-04-13T09:04:41.684Z,7.9
2023-04-13T09:19:41.561Z,7.3
2023-04-13T09:34:41.574Z,8.1
2023-04-13T09:49:41.570Z,9.2
2023-04-13T10:04:41.613Z,9.2
2023-04-13T10:19:41.577Z,9.1
2023-04-13T10:34:41.563Z,9.2
2023-04-13T10:49:41.598Z,9.9
2023-04-13T11:04:41.642Z,10.8
2023-04-13T11:19:41.570Z,10.8
2023-04-13T11:34:41.596Z,11.5
2023-04-13T11:49:41.580Z,11.6
2023-04-13T12:04:41.702Z,11.2
2023-04-13T12:19:43.581Z,11.2
2023-04-13T12:34:41.610Z,11.4
2023-04-13T12:49:41.567Z,11.9
2023-04-13T13:04:41.641Z,12
2023-04-13T13:19:41.593Z,12.2
2023-04-13T13:34:41.642Z,11.6
2023-04-13T13:49:41.592Z,12.5
2023-04-13T14:04:41.639Z,13.1
2023-04-13T14:19:41.600Z,13.3
2023-04-13T14:34:41.516Z,14.5
2023-04-13T14:49:41.557Z,14.6
2023-04-13T15:04:41.678Z,15.9
2023-04-13T15:19:41.593Z,15.6
2023-04-13T15:34:41.591Z,15.5
2023-04-13T15:49:41.574Z,15.5
2023-04-13T16:04:41.717Z,15.8
2023-04-13T16:19:41.567Z,14.6
2023-04-13T16:34:41.560Z,14.7
2023-04-13T16:49:41.587Z,13.1
2023-04-13T17:04:41.665Z,12.3
2023-04-13T17:19:41.577Z,11.9
2023-04-13T17:34:41.580Z,11.7
2023-04-13T17:49:41.581Z,11.4
2023-04-13T18:04:41.583Z,11.1
2023-04-13T18:19:41.587Z,10.4
2023-04-13T18:34:41.586Z,10.1
2023-04-13T18:49:41.603Z,9.9
2023-04-13T19:04:41.622Z,9.6
2023-04-13T19:19:41.545Z,9.2
2023-04-13T19:34:41.541Z,9.1
2023-04-13T19:49:41.605Z,8.8
2023-04-13T20:04:41.621Z,8.8
2023-04-13T20:19:41.583Z,8.6
2023-04-13T20:34:41.518Z,8.2
2023-04-13T20:49:41.595Z,7.9
2023-04-13T21:04:41.569Z,7.9
2023-04-13T21:19:41.610Z,7.9
2023-04-13T21:34:41.572Z,7.6
2023-04-13T21:49:41.585Z,7.4
2023-04-13T22:04:41.559Z,7.1
2023-04-13T22:19:41.580Z,6.6
2023-04-13T22:34:41.580Z,6.4
2023-04-13T22:49:41.583Z,6.4
2023-04-13T23:04:41.635Z,6.2
2023-04-13T23:19:41.595Z,6.2
2023-04-13T23:34:41.587Z,6.1
2023-04-13T23:49:41.578Z,5.8
